createdAt,value
2023-04-06T00:00:15.570Z,5.00
2023-04-06T00:02:44.281Z,4.32
2023-04-06T00:05:13.006Z,4.35
2023-04-06T00:07:43.033Z,4.28
2023-04-06T00:10:12.294Z,3.45
2023-04-06T00:12:40.954Z,3.45
2023-04-06T00:15:10.747Z,4.13
2023-04-06T00:17:39.462Z,4.78
2023-04-06T00:20:09.405Z,3.75
2023-04-06T00:22:38.109Z,4.57
2023-04-06T00:25:08.985Z,3.25
2023-04-06T00:27:37.671Z,3.97
2023-04-06T00:30:07.419Z,3.40
2023-04-06T00:32:36.534Z,4.03
2023-04-06T00:35:05.808Z,3.90
2023-04-06T00:37:35.053Z,3.53
2023-04-06T00:40:04.275Z,4.25
2023-04-06T00:42:34.126Z,3.90
2023-04-06T00:45:03.963Z,4.35
2023-04-06T00:47:32.698Z,3.88
2023-04-06T00:50:01.418Z,3.72
2023-04-06T00:52:31.128Z,4.13
2023-04-06T00:54:59.891Z,4.32
2023-04-06T00:57:28.641Z,3.47
2023-04-06T00:59:59.680Z,3.63
2023-04-06T01:02:28.486Z,4.20
2023-04-06T01:04:57.700Z,3.70
2023-04-06T01:07:36.241Z,3.63
2023-04-06T01:10:26.591Z,4.22
2023-04-06T01:13:01.226Z,4.03
2023-04-06T01:15:52.209Z,4.45
2023-04-06T01:18:31.557Z,4.38
2023-04-06T01:21:16.562Z,4.20
2023-04-06T01:24:00.946Z,3.30
2023-04-06T01:26:37.590Z,4.70
2023-04-06T01:29:09.294Z,4.13
2023-04-06T01:31:38.240Z,4.43
2023-04-06T01:34:07.230Z,4.07
2023-04-06T01:36:36.234Z,3.92
2023-04-06T01:39:22.129Z,4.65
2023-04-06T01:41:51.049Z,4.57
2023-04-06T01:44:21.790Z,4.03
2023-04-06T01:46:57.587Z,4.13
2023-04-06T01:49:26.782Z,4.32
2023-04-06T01:51:58.101Z,4.90
2023-04-06T01:54:28.873Z,4.78
2023-04-06T01:57:08.885Z,4.72
2023-04-06T01:59:44.168Z,5.38
2023-04-06T02:02:33.307Z,5.00
2023-04-06T02:05:07.699Z,5.78
2023-04-06T02:07:36.802Z,4.53
2023-04-06T02:10:13.092Z,4.80
2023-04-06T02:12:41.998Z,4.80
2023-04-06T02:15:15.455Z,5.30
2023-04-06T02:17:44.823Z,4.90
2023-04-06T02:20:13.586Z,5.00
2023-04-06T02:22:42.438Z,6.50
2023-04-06T02:25:12.850Z,5.75
2023-04-06T02:27:41.598Z,5.28
2023-04-06T02:30:11.161Z,5.57
2023-04-06T02:32:39.963Z,5.10
2023-04-06T02:35:09.712Z,4.07
2023-04-06T02:37:38.491Z,5.18
2023-04-06T02:40:08.193Z,6.13
2023-04-06T02:42:38.325Z,5.35
2023-04-06T02:45:08.770Z,5.40
2023-04-06T02:47:43.791Z,5.55
2023-04-06T02:50:14.687Z,5.03
2023-04-06T02:52:52.125Z,5.93
2023-04-06T02:55:22.377Z,5.57
2023-04-06T02:57:52.922Z,4.85
2023-04-06T03:00:25.867Z,4.40
2023-04-06T03:02:54.424Z,4.70
2023-04-06T03:05:23.386Z,5.38
2023-04-06T03:07:52.166Z,4.93
2023-04-06T03:10:32.725Z,5.90
2023-04-06T03:13:02.772Z,6.53
2023-04-06T03:16:00.548Z,5.55
2023-04-06T03:18:29.862Z,5.65
2023-04-06T03:21:01.356Z,5.57
2023-04-06T03:24:06.353Z,5.03
2023-04-06T03:26:35.273Z,5.63
2023-04-06T03:29:09.035Z,4.97
2023-04-06T03:31:38.321Z,5.57
2023-04-06T03:34:10.036Z,4.90
2023-04-06T03:36:39.046Z,5.22
2023-04-06T03:39:07.666Z,4.45
2023-04-06T03:41:40.693Z,4.38
2023-04-06T03:46:55.513Z,3.70
2023-04-06T03:49:24.410Z,4.47
2023-04-06T03:51:55.957Z,3.28
2023-04-06T03:54:25.295Z,3.92
2023-04-06T03:56:53.943Z,3.65
2023-04-06T03:59:22.774Z,4.95
2023-04-06T04:01:56.466Z,6.75
2023-04-06T04:04:26.035Z,6.38
2023-04-06T04:06:54.683Z,6.60
2023-04-06T04:09:23.072Z,6.50
2023-04-06T04:11:52.897Z,6.10
2023-04-06T04:14:22.509Z,5.53
2023-04-06T04:16:51.492Z,5.85
2023-04-06T04:19:22.224Z,5.72
2023-04-06T04:21:51.062Z,7.57
2023-04-06T04:24:26.408Z,5.60
2023-04-06T04:26:56.452Z,6.57
2023-04-06T04:29:25.837Z,6.63
2023-04-06T04:31:55.503Z,7.18
2023-04-06T04:34:26.206Z,6.43
2023-04-06T04:36:55.406Z,6.82
2023-04-06T04:39:34.961Z,6.10
2023-04-06T04:42:08.967Z,6.43
2023-04-06T04:47:11.485Z,5.00
2023-04-06T04:55:10.307Z,3.63
2023-04-06T04:57:39.194Z,7.40
2023-04-06T05:00:09.824Z,7.93
2023-04-06T05:02:40.726Z,6.75
2023-04-06T05:05:24.445Z,6.53
2023-04-06T05:07:53.496Z,5.68
2023-04-06T05:10:39.692Z,5.53
2023-04-06T05:13:08.986Z,5.93
2023-04-06T05:15:39.357Z,5.95
2023-04-06T05:18:16.653Z,6.05
2023-04-06T05:20:46.997Z,4.90
2023-04-06T05:23:15.987Z,5.68
2023-04-06T05:25:45.823Z,6.32
2023-04-06T05:28:21.884Z,5.47
2023-04-06T05:30:50.845Z,4.88
2023-04-06T05:33:19.732Z,5.25
2023-04-06T05:36:08.125Z,6.28
2023-04-06T05:38:40.446Z,8.13
2023-04-06T05:41:27.978Z,6.28
2023-04-06T05:43:57.607Z,5.30
2023-04-06T05:46:27.112Z,5.38
2023-04-06T05:48:58.497Z,4.85
2023-04-06T05:51:32.289Z,4.93
2023-04-06T05:54:01.431Z,5.88
2023-04-06T05:56:31.264Z,4.85
2023-04-06T05:59:00.642Z,4.32
2023-04-06T06:01:31.868Z,4.32
2023-04-06T06:04:03.068Z,5.20
2023-04-06T06:06:36.042Z,5.80
2023-04-06T06:09:16.201Z,6.10
2023-04-06T06:11:53.660Z,6.78
2023-04-06T06:14:29.335Z,6.40
2023-04-06T06:16:58.287Z,6.55
2023-04-06T06:19:27.226Z,5.80
2023-04-06T06:22:03.395Z,7.00
2023-04-06T06:24:33.315Z,6.90
2023-04-06T06:27:03.201Z,7.57
2023-04-06T06:29:34.729Z,7.88
2023-04-06T06:32:03.849Z,6.22
2023-04-06T06:34:32.644Z,7.32
2023-04-06T06:37:06.156Z,7.22
2023-04-06T06:39:36.128Z,7.68
2023-04-06T06:42:04.955Z,7.18
2023-04-06T06:44:57.210Z,7.93
2023-04-06T06:47:27.196Z,7.70
2023-04-06T06:49:56.356Z,6.78
2023-04-06T06:52:27.138Z,7.07
2023-04-06T06:54:57.670Z,7.90
2023-04-06T06:57:28.237Z,6.47
2023-04-06T06:59:57.301Z,6.28
2023-04-06T07:02:26.148Z,7.40
2023-04-06T07:04:55.087Z,7.25
2023-04-06T07:07:23.978Z,6.93
2023-04-06T07:09:53.951Z,7.60
2023-04-06T07:12:22.573Z,7.38
2023-04-06T07:14:51.282Z,7.45
2023-04-06T07:17:20.008Z,6.57
2023-04-06T07:19:48.901Z,7.68
2023-04-06T07:22:17.668Z,7.55
2023-04-06T07:24:46.500Z,8.35
2023-04-06T07:27:18.273Z,7.07
2023-04-06T07:29:48.011Z,7.65
2023-04-06T07:32:16.842Z,6.25
2023-04-06T07:34:46.286Z,7.72
2023-04-06T07:37:16.074Z,6.93
2023-04-06T07:39:46.604Z,6.75
2023-04-06T07:42:17.748Z,7.32
2023-04-06T07:44:48.567Z,7.40
2023-04-06T07:47:18.299Z,6.57
2023-04-06T07:49:48.496Z,7.47
2023-04-06T07:52:18.425Z,6.72
2023-04-06T07:54:50.587Z,7.88
2023-04-06T07:57:21.012Z,7.45
2023-04-06T07:59:49.749Z,6.40
2023-04-06T08:02:18.763Z,6.68
2023-04-06T08:04:47.672Z,7.05
2023-04-06T08:07:16.488Z,8.38
2023-04-06T08:09:45.629Z,10.48
2023-04-06T08:12:14.941Z,7.07
2023-04-06T08:14:44.892Z,7.38
2023-04-06T08:17:13.684Z,8.18
2023-04-06T08:19:44.678Z,7.30
2023-04-06T08:22:13.534Z,7.47
2023-04-06T08:24:42.545Z,7.40
2023-04-06T08:27:11.106Z,6.78
2023-04-06T08:29:40.100Z,7.93
2023-04-06T08:32:10.223Z,7.63
2023-04-06T08:34:39.008Z,8.10
2023-04-06T08:37:08.496Z,8.07
2023-04-06T08:39:37.229Z,8.05
2023-04-06T08:42:06.598Z,7.25
2023-04-06T08:44:35.355Z,7.35
2023-04-06T08:47:06.639Z,7.00
2023-04-06T08:49:39.364Z,6.63
2023-04-06T08:52:10.227Z,7.75
2023-04-06T08:54:40.006Z,6.35
2023-04-06T08:57:09.520Z,7.90
2023-04-06T08:59:38.711Z,7.75
2023-04-06T09:02:08.308Z,7.22
2023-04-06T09:04:39.162Z,6.68
2023-04-06T09:07:08.153Z,7.93
2023-04-06T09:09:36.645Z,8.27
2023-04-06T09:12:07.065Z,7.47
2023-04-06T09:14:39.511Z,7.00
2023-04-06T09:17:08.651Z,7.03
2023-04-06T09:19:48.024Z,6.65
2023-04-06T09:22:17.093Z,7.10
2023-04-06T09:24:47.819Z,6.72
2023-04-06T09:27:17.084Z,8.02
2023-04-06T09:29:46.480Z,8.45
2023-04-06T09:32:18.183Z,7.55
2023-04-06T09:34:50.980Z,7.20
2023-04-06T09:37:21.502Z,7.75
2023-04-06T09:39:52.516Z,7.88
2023-04-06T09:42:27.601Z,5.97
2023-04-06T09:44:56.721Z,7.22
2023-04-06T09:47:29.466Z,7.55
2023-04-06T09:50:04.776Z,7.45
2023-04-06T09:55:09.289Z,7.78
2023-04-06T09:57:49.477Z,7.63
2023-04-06T10:00:24.387Z,8.32
2023-04-06T10:05:39.516Z,7.63
2023-04-06T10:08:11.322Z,7.03
2023-04-06T10:10:40.232Z,7.22
2023-04-06T10:13:09.404Z,8.15
2023-04-06T10:15:39.980Z,6.80
2023-04-06T10:18:09.572Z,7.35
2023-04-06T10:20:49.574Z,6.22
2023-04-06T10:23:26.108Z,8.25
2023-04-06T10:25:56.137Z,7.80
2023-04-06T10:28:25.792Z,7.45
2023-04-06T10:31:00.736Z,6.95
2023-04-06T10:33:31.231Z,5.55
2023-04-06T10:36:11.762Z,6.35
2023-04-06T10:38:42.043Z,5.88
2023-04-06T10:41:12.499Z,6.85
2023-04-06T10:43:42.816Z,6.68
2023-04-06T10:46:12.675Z,6.50
2023-04-06T10:48:42.825Z,6.97
2023-04-06T10:51:14.472Z,7.70
2023-04-06T10:53:45.452Z,6.05
2023-04-06T10:56:16.233Z,6.78
2023-04-06T10:58:48.554Z,6.53
2023-04-06T11:01:18.829Z,7.20
2023-04-06T11:03:48.214Z,6.88
2023-04-06T11:06:26.393Z,6.45
2023-04-06T11:08:56.316Z,7.35
2023-04-06T11:11:27.340Z,6.47
2023-04-06T11:13:58.797Z,6.68
2023-04-06T11:16:29.282Z,6.57
2023-04-06T11:19:00.634Z,7.45
2023-04-06T11:21:40.298Z,5.72
2023-04-06T11:24:11.723Z,6.53
2023-04-06T11:26:42.612Z,6.40
2023-04-06T11:29:11.598Z,6.43
2023-04-06T11:31:44.767Z,6.22
2023-04-06T11:34:15.484Z,6.93
2023-04-06T11:36:47.054Z,5.78
2023-04-06T11:41:50.920Z,5.55
2023-04-06T11:44:33.640Z,4.10
2023-04-06T11:47:03.793Z,5.03
2023-04-06T11:49:33.308Z,5.25
2023-04-06T11:52:03.726Z,5.57
2023-04-06T11:54:34.193Z,5.03
2023-04-06T11:57:03.529Z,4.68
2023-04-06T11:59:32.460Z,4.85
2023-04-06T12:02:01.308Z,5.78
2023-04-06T12:04:29.864Z,5.55
2023-04-06T12:06:59.193Z,6.20
2023-04-06T12:09:29.107Z,5.88
2023-04-06T12:11:58.286Z,4.97
2023-04-06T12:14:26.889Z,6.43
2023-04-06T12:16:55.882Z,5.95
2023-04-06T12:19:26.606Z,6.05
2023-04-06T12:21:55.829Z,5.50
2023-04-06T12:24:24.597Z,5.45
2023-04-06T12:27:08.638Z,5.40
2023-04-06T12:29:37.839Z,5.97
2023-04-06T12:32:07.063Z,5.97
2023-04-06T12:34:37.132Z,5.38
2023-04-06T12:37:06.046Z,5.18
2023-04-06T12:39:34.864Z,5.50
2023-04-06T12:42:05.591Z,4.70
2023-04-06T12:44:34.460Z,5.03
2023-04-06T12:47:03.480Z,5.88
2023-04-06T12:49:32.651Z,6.03
2023-04-06T12:52:01.529Z,6.35
2023-04-06T12:54:30.407Z,6.32
2023-04-06T12:56:59.128Z,5.95
2023-04-06T12:59:35.562Z,5.93
2023-04-06T13:02:05.750Z,7.30
2023-04-06T13:04:44.153Z,6.00
2023-04-06T13:07:12.892Z,6.25
2023-04-06T13:09:41.595Z,6.03
2023-04-06T13:12:10.426Z,6.32
2023-04-06T13:14:40.554Z,5.63
2023-04-06T13:17:09.492Z,7.05
2023-04-06T13:19:38.198Z,6.60
2023-04-06T13:22:07.993Z,6.07
2023-04-06T13:24:36.769Z,7.13
2023-04-06T13:27:05.603Z,6.63
2023-04-06T13:29:35.255Z,5.72
2023-04-06T13:32:05.281Z,6.15
2023-04-06T13:34:33.801Z,6.65
2023-04-06T13:37:02.559Z,4.72
2023-04-06T13:39:31.530Z,6.50
2023-04-06T13:42:00.686Z,6.22
2023-04-06T13:44:31.103Z,6.57
2023-04-06T13:47:00.495Z,5.15
2023-04-06T13:49:31.235Z,5.32
2023-04-06T13:52:00.138Z,4.57
2023-04-06T13:54:29.799Z,4.63
2023-04-06T13:56:58.890Z,5.32
2023-04-06T13:59:33.539Z,4.75
2023-04-06T14:04:32.288Z,5.10
2023-04-06T14:07:01.325Z,4.80
2023-04-06T14:09:30.262Z,4.38
2023-04-06T14:11:59.217Z,3.80
2023-04-06T14:14:27.875Z,3.72
2023-04-06T14:16:56.602Z,3.80
2023-04-06T14:19:25.272Z,3.80
2023-04-06T14:21:55.391Z,3.75
2023-04-06T14:24:24.088Z,3.83
2023-04-06T14:26:52.685Z,3.25
2023-04-06T14:29:21.274Z,3.42
2023-04-06T14:31:50.089Z,3.20
2023-04-06T14:34:18.796Z,3.08
2023-04-06T14:36:47.419Z,2.70
2023-04-06T14:39:17.495Z,3.78
2023-04-06T14:41:46.368Z,3.70
2023-04-06T14:44:15.440Z,3.95
2023-04-06T14:46:44.303Z,4.25
2023-04-06T14:49:14.240Z,4.13
2023-04-06T14:51:42.937Z,3.80
2023-04-06T14:54:11.596Z,2.75
2023-04-06T14:56:41.289Z,3.88
2023-04-06T14:59:09.862Z,4.03
2023-04-06T15:01:39.184Z,3.72
2023-04-06T15:04:08.159Z,4.38
2023-04-06T15:06:36.523Z,3.53
2023-04-06T15:09:05.460Z,3.42
2023-04-06T15:11:34.132Z,4.38
2023-04-06T15:14:04.251Z,4.28
2023-04-06T15:16:33.734Z,4.25
2023-04-06T15:19:02.797Z,3.65
2023-04-06T15:21:32.057Z,2.67
2023-04-06T15:24:00.736Z,3.78
2023-04-06T15:26:29.327Z,3.17
2023-04-06T15:28:57.882Z,4.20
2023-04-06T15:31:37.791Z,4.22
2023-04-06T15:34:08.865Z,3.28
2023-04-06T15:36:37.990Z,3.67
2023-04-06T15:39:09.462Z,3.85
2023-04-06T15:41:37.947Z,3.50
2023-04-06T15:44:06.790Z,1.90
2023-04-06T15:46:36.932Z,2.13
2023-04-06T15:49:06.028Z,1.85
2023-04-06T15:51:34.673Z,1.83
2023-04-06T15:54:03.412Z,1.95
2023-04-06T15:56:33.407Z,1.90
2023-04-06T15:59:03.870Z,2.05
2023-04-06T16:01:32.484Z,2.42
2023-04-06T16:04:02.584Z,2.75
2023-04-06T16:06:32.540Z,2.95
2023-04-06T16:09:00.901Z,3.17
2023-04-06T16:11:29.608Z,3.13
2023-04-06T16:13:58.405Z,3.22
2023-04-06T16:16:27.412Z,2.75
2023-04-06T16:18:56.246Z,2.80
2023-04-06T16:21:27.898Z,2.65
2023-04-06T16:23:58.532Z,2.85
2023-04-06T16:26:28.657Z,2.35
2023-04-06T16:28:57.398Z,2.97
2023-04-06T16:31:26.495Z,2.63
2023-04-06T16:33:57.317Z,3.03
2023-04-06T16:36:28.686Z,2.53
2023-04-06T16:38:57.949Z,2.30
2023-04-06T16:41:27.487Z,1.90
2023-04-06T16:43:57.361Z,2.10
2023-04-06T16:46:31.970Z,2.50
2023-04-06T16:49:01.557Z,2.78
2023-04-06T16:51:33.119Z,2.28
2023-04-06T16:54:02.579Z,2.40
2023-04-06T16:56:32.790Z,2.60
2023-04-06T16:59:01.769Z,2.45
2023-04-06T17:01:30.814Z,2.95
2023-04-06T17:03:59.847Z,2.63
2023-04-06T17:06:29.194Z,2.28
2023-04-06T17:08:59.736Z,2.42
2023-04-06T17:11:35.923Z,2.92
2023-04-06T17:14:12.182Z,2.60
2023-04-06T17:16:40.818Z,3.20
2023-04-06T17:19:09.607Z,3.10
2023-04-06T17:21:38.384Z,2.83
2023-04-06T17:24:09.248Z,3.13
2023-04-06T17:26:37.677Z,3.40
2023-04-06T17:29:06.315Z,2.78
2023-04-06T17:31:34.965Z,2.35
2023-04-06T17:34:03.809Z,3.00
2023-04-06T17:36:32.861Z,2.60
2023-04-06T17:39:01.849Z,2.90
2023-04-06T17:41:32.779Z,4.63
2023-04-06T17:44:01.525Z,2.60
2023-04-06T17:46:30.121Z,2.88
2023-04-06T17:48:58.558Z,3.45
2023-04-06T17:51:27.235Z,2.97
2023-04-06T17:53:56.008Z,2.90
2023-04-06T17:56:24.673Z,3.05
2023-04-06T17:58:57.514Z,3.08
2023-04-06T18:01:26.362Z,3.00
2023-04-06T18:03:55.065Z,2.63
2023-04-06T18:06:26.182Z,2.92
2023-04-06T18:08:55.237Z,3.90
2023-04-06T18:11:25.689Z,3.53
2023-04-06T18:13:55.594Z,3.95
2023-04-06T18:16:28.411Z,2.92
2023-04-06T18:18:57.795Z,3.58
2023-04-06T18:21:27.369Z,2.80
2023-04-06T18:23:55.983Z,2.92
2023-04-06T18:26:25.919Z,3.15
2023-04-06T18:28:55.907Z,3.33
2023-04-06T18:31:24.516Z,2.85
2023-04-06T18:33:54.428Z,2.75
2023-04-06T18:36:23.522Z,3.00
2023-04-06T18:38:54.515Z,3.00
2023-04-06T18:41:23.193Z,2.55
2023-04-06T18:43:51.950Z,2.95
2023-04-06T18:46:22.487Z,3.30
2023-04-06T18:48:51.250Z,3.38
2023-04-06T18:51:20.728Z,3.55
2023-04-06T18:53:49.513Z,3.55
2023-04-06T18:56:19.972Z,4.85
2023-04-06T18:58:49.187Z,3.40
2023-04-06T19:01:28.473Z,4.35
2023-04-06T19:03:59.233Z,3.83
2023-04-06T19:06:28.697Z,3.83
2023-04-06T19:08:58.864Z,4.53
2023-04-06T19:11:28.029Z,3.63
2023-04-06T19:13:57.566Z,4.35
2023-04-06T19:16:27.660Z,4.13
2023-04-06T19:18:56.387Z,3.63
2023-04-06T19:21:27.476Z,3.90
2023-04-06T19:23:56.690Z,4.05
2023-04-06T19:26:27.867Z,5.07
2023-04-06T19:28:56.840Z,5.32
2023-04-06T19:31:28.024Z,4.65
2023-04-06T19:33:57.240Z,4.22
2023-04-06T19:36:26.041Z,5.78
2023-04-06T19:38:54.760Z,5.00
2023-04-06T19:41:26.473Z,6.43
2023-04-06T19:43:55.216Z,7.45
2023-04-06T19:46:23.831Z,7.03
2023-04-06T19:48:53.602Z,6.43
2023-04-06T19:51:22.317Z,7.20
2023-04-06T19:53:50.967Z,6.15
2023-04-06T19:56:19.610Z,7.05
2023-04-06T19:58:47.949Z,6.75
2023-04-06T20:01:16.403Z,6.57
2023-04-06T20:03:45.228Z,5.75
2023-04-06T20:06:16.751Z,8.30
2023-04-06T20:08:45.384Z,7.90
2023-04-06T20:11:14.133Z,6.47
2023-04-06T20:13:42.772Z,6.38
2023-04-06T20:16:11.403Z,7.65
2023-04-06T20:18:40.089Z,6.72
2023-04-06T20:21:08.698Z,6.97
2023-04-06T20:23:38.385Z,6.60
2023-04-06T20:26:10.899Z,8.23
2023-04-06T20:28:39.730Z,6.47
2023-04-06T20:31:08.621Z,5.35
2023-04-06T20:33:37.418Z,5.72
2023-04-06T20:36:06.281Z,6.80
2023-04-06T20:38:34.740Z,7.22
2023-04-06T20:41:04.836Z,6.25
2023-04-06T20:43:34.484Z,6.68
2023-04-06T20:46:03.327Z,6.05
2023-04-06T20:48:35.951Z,7.35
2023-04-06T20:51:06.552Z,6.00
2023-04-06T20:53:35.393Z,6.65
2023-04-06T20:56:05.642Z,8.45
2023-04-06T20:58:34.216Z,7.45
2023-04-06T21:01:02.542Z,7.25
2023-04-06T21:03:31.263Z,7.82
2023-04-06T21:06:02.057Z,9.23
2023-04-06T21:08:30.805Z,8.52
2023-04-06T21:10:59.426Z,8.20
2023-04-06T21:13:29.676Z,8.98
2023-04-06T21:15:58.410Z,9.60
2023-04-06T21:18:27.266Z,8.48
2023-04-06T21:20:55.953Z,9.73
2023-04-06T21:23:24.602Z,8.32
2023-04-06T21:25:56.828Z,8.60
2023-04-06T21:28:26.346Z,9.82
2023-04-06T21:30:56.963Z,7.93
2023-04-06T21:33:25.660Z,8.15
2023-04-06T21:35:54.588Z,8.82
2023-04-06T21:38:23.177Z,9.00
2023-04-06T21:40:56.700Z,7.88
2023-04-06T21:43:25.329Z,9.85
2023-04-06T21:45:55.160Z,8.23
2023-04-06T21:48:23.854Z,10.07
2023-04-06T21:50:52.205Z,8.40
2023-04-06T21:53:20.973Z,8.52
2023-04-06T21:55:50.032Z,9.20
2023-04-06T21:58:18.381Z,8.15
2023-04-06T22:00:46.711Z,8.48
2023-04-06T22:03:16.940Z,9.60
2023-04-06T22:05:45.700Z,8.68
2023-04-06T22:08:25.526Z,9.35
2023-04-06T22:11:02.520Z,8.85
2023-04-06T22:13:31.235Z,9.05
2023-04-06T22:15:59.560Z,10.13
2023-04-06T22:18:29.591Z,8.00
2023-04-06T22:20:58.317Z,9.00
2023-04-06T22:23:26.897Z,10.50
2023-04-06T22:25:57.957Z,8.65
2023-04-06T22:28:27.069Z,9.63
2023-04-06T22:30:55.465Z,10.35
2023-04-06T22:33:24.100Z,9.70
2023-04-06T22:35:53.810Z,10.55
2023-04-06T22:38:22.468Z,10.27
2023-04-06T22:40:51.100Z,9.68
2023-04-06T22:43:19.819Z,11.35
2023-04-06T22:45:48.408Z,8.35
2023-04-06T22:48:17.230Z,10.13
2023-04-06T22:50:45.817Z,10.07
2023-04-06T22:53:15.531Z,9.73
2023-04-06T22:55:44.437Z,12.73
2023-04-06T22:58:13.079Z,10.88
2023-04-06T23:00:41.740Z,11.23
2023-04-06T23:03:10.716Z,11.70
2023-04-06T23:05:39.510Z,10.30
2023-04-06T23:08:07.849Z,12.10
2023-04-06T23:10:41.783Z,8.32
2023-04-06T23:13:10.446Z,9.20
2023-04-06T23:15:39.068Z,9.55
2023-04-06T23:18:07.911Z,9.70
2023-04-06T23:20:36.695Z,9.57
2023-04-06T23:23:05.507Z,10.18
2023-04-06T23:25:34.219Z,9.77
2023-04-06T23:28:04.041Z,10.57
2023-04-06T23:30:32.761Z,10.20
2023-04-06T23:33:01.467Z,10.57
2023-04-06T23:35:30.094Z,9.52
2023-04-06T23:37:59.361Z,10.55
2023-04-06T23:40:27.992Z,9.50
2023-04-06T23:42:56.347Z,10.40
2023-04-06T23:45:26.686Z,11.27
2023-04-06T23:47:55.338Z,10.38
2023-04-06T23:50:24.167Z,11.07
2023-04-06T23:52:52.735Z,10.77
2023-04-06T23:55:21.394Z,11.65
2023-04-06T23:57:49.992Z,10.50
